This is the latest recevied weather packets stored in our database for station/object SR4DIG-13. If no packets are shown the sender has not sent any weather packets the latest 10 day(s).
| Time | Temp. | Humidity | Pressure | Rain* | Wind** | Luminosity | Snow |
|---|---|---|---|---|---|---|---|
| 1788335207 | 23.33° C | 60% | 1016.6 hPa | 0 mm | - | - | - |
| 1788334906 | 22.78° C | 59% | 1016.5 hPa | 0 mm | - | - | - |
| 1788334605 | 23.33° C | 59% | 1016.6 hPa | 0 mm | - | - | - |
| 1788334304 | 23.33° C | 59% | 1016.6 hPa | 0 mm | - | - | - |
| 1788334003 | 23.89° C | 58% | 1016.4 hPa | 0 mm | - | - | - |
| 1788333702 | 23.89° C | 59% | 1016.5 hPa | 0 mm | - | - | - |
| 1788333401 | 23.89° C | 59% | 1016.4 hPa | 0 mm | - | - | - |
| 1788333100 | 23.33° C | 60% | 1016.5 hPa | 0 mm | - | - | - |
| 1788332799 | 23.33° C | 62% | 1016.5 hPa | 0 mm | - | - | - |
| 1788332498 | 22.78° C | 63% | 1016.4 hPa | 0 mm | - | - | - |
| 1788332198 | 21.11° C | 65% | 1016.4 hPa | 0 mm | - | - | - |
| 1788331897 | 21.67° C | 63% | 1016.3 hPa | 0 mm | - | - | - |
| 1788331596 | 22.22° C | 62% | 1016.3 hPa | 0 mm | - | - | - |
| 1788331295 | 21.67° C | 66% | 1016.3 hPa | 0 mm | - | - | - |
| 1788330710 | 20.56° C | 70% | 1016.2 hPa | 0 mm | - | - | - |
| 1788330409 | 20° C | 69% | 1016.2 hPa | 0 mm | - | - | - |
| 1788330108 | 20.56° C | 69% | 1016.2 hPa | 0 mm | - | - | - |
| 1788329807 | 20.56° C | 68% | 1016.2 hPa | 0 mm | - | - | - |
| 1788329506 | 21.11° C | 68% | 1016.1 hPa | 0 mm | - | - | - |
| 1788329205 | 21.11° C | 68% | 1016.1 hPa | 0 mm | - | - | - |
| 1788328904 | 21.11° C | 70% | 1016.1 hPa | 0 mm | - | - | - |
| 1788328603 | 20.56° C | 71% | 1016.1 hPa | 0 mm | - | - | - |
| 1788328303 | 20° C | 74% | 1016.1 hPa | 0 mm | - | - | - |
| 1788328002 | 19.44° C | 75% | 1016.1 hPa | 0 mm | - | - | - |
| 1788327701 | 18.89° C | 77% | 1016.1 hPa | 0 mm | - | - | - |
* Rain latest hour (hover to see other rain measurements)
** Current wind speed in m/s (hover to see current wind gust speed)